Terminal Aerodrome Forecast
Issued by NWS

Home | Current Version | Previous Version | Graphics & Text | Print | Product List | Glossary On
Versions: 1 2 3 4 5 6 7 8 9 10 11 12 13 14 15 16 17 18 19 20 21 22 23
127
FTUS43 KTOP 181737
TAFMHK
TAF
KMHK 181737Z 1818/1918 19007KT P6SM BKN100
     FM190600 18004KT 3SM BR BKN020 OVC050
     FM191300 15004KT 2SM BR BKN003
     FM191500 16007KT 6SM BR BKN006=

USA.gov is the U.S. government's official web portal to all federal, state and local government web resources and services.